createdAt,value
2023-01-20T00:01:27.196Z,-1.35
2023-01-20T00:03:55.758Z,-1.34
2023-01-20T00:06:23.732Z,-1.31
2023-01-20T00:08:54.294Z,-1.35
2023-01-20T00:11:21.549Z,-1.22
2023-01-20T00:13:51.034Z,-1.37
2023-01-20T00:16:17.567Z,-1.27
2023-01-20T00:18:44.084Z,-1.18
2023-01-20T00:21:12.731Z,-1.27
2023-01-20T00:23:40.458Z,-1.29
2023-01-20T00:26:12.643Z,-1.42
2023-01-20T00:28:39.442Z,-1.29
2023-01-20T00:31:20.875Z,-1.20
2023-01-20T00:33:48.990Z,-1.32
2023-01-20T00:36:17.368Z,-1.26
2023-01-20T00:38:44.398Z,-1.35
2023-01-20T00:41:11.475Z,-1.37
2023-01-20T00:43:38.429Z,-1.33
2023-01-20T00:46:05.626Z,-1.25
2023-01-20T00:48:32.808Z,-1.26
2023-01-20T00:51:02.014Z,-1.31
2023-01-20T00:53:29.025Z,-1.35
2023-01-20T00:55:56.156Z,-1.25
2023-01-20T00:58:22.911Z,-1.20
2023-01-20T01:00:51.166Z,-1.27
2023-01-20T01:03:18.000Z,-1.30
2023-01-20T01:05:45.467Z,-1.23
2023-01-20T01:08:12.180Z,-1.22
2023-01-20T01:10:38.964Z,-1.32
2023-01-20T01:13:05.922Z,-1.18
2023-01-20T01:15:32.522Z,-1.29
2023-01-20T01:17:59.853Z,-1.45
2023-01-20T01:20:27.199Z,-1.39
2023-01-20T01:22:53.753Z,-1.43
2023-01-20T01:25:20.555Z,-1.43
2023-01-20T01:27:47.064Z,-1.60
2023-01-20T01:30:13.596Z,-1.56
2023-01-20T01:32:40.429Z,-1.46
2023-01-20T01:35:07.087Z,-1.39
2023-01-20T01:37:33.547Z,-1.41
2023-01-20T01:40:00.016Z,-1.36
2023-01-20T01:42:26.841Z,-1.29
2023-01-20T01:45:12.082Z,-1.40
2023-01-20T01:47:53.295Z,-1.47
2023-01-20T01:50:26.222Z,-1.49
2023-01-20T01:52:55.549Z,-1.48
2023-01-20T01:55:30.471Z,-1.63
2023-01-20T01:57:59.762Z,-1.55
2023-01-20T02:00:26.763Z,-1.56
2023-01-20T02:02:54.699Z,-1.44
2023-01-20T02:05:25.608Z,-1.48
2023-01-20T02:07:52.393Z,-1.39
2023-01-20T02:10:21.336Z,-1.37
2023-01-20T02:12:51.247Z,-1.40
2023-01-20T02:15:22.981Z,-1.38
2023-01-20T02:18:25.086Z,-1.39
2023-01-20T02:21:12.879Z,-1.50
2023-01-20T02:23:58.288Z,-1.29
2023-01-20T02:26:33.979Z,-1.29
2023-01-20T02:29:03.500Z,-1.41
2023-01-20T02:31:43.733Z,-1.33
2023-01-20T02:34:41.191Z,-1.28
2023-01-20T02:37:15.983Z,-1.23
2023-01-20T02:39:55.937Z,-1.26
2023-01-20T02:42:30.182Z,-1.31
2023-01-20T02:45:08.930Z,-1.32
2023-01-20T02:47:43.284Z,-1.29
2023-01-20T02:50:23.888Z,-1.31
2023-01-20T02:52:54.277Z,-1.31
2023-01-20T02:55:31.627Z,-1.38
2023-01-20T02:58:06.953Z,-1.39
2023-01-20T03:00:40.258Z,-1.39
2023-01-20T03:03:12.119Z,-1.36
2023-01-20T03:05:45.851Z,-1.35
2023-01-20T03:08:14.908Z,-1.30
2023-01-20T03:10:42.888Z,-1.22
2023-01-20T03:13:32.559Z,-1.17
2023-01-20T03:16:03.153Z,-1.13
2023-01-20T03:18:32.296Z,-1.09
2023-01-20T03:21:03.325Z,-1.07
2023-01-20T03:23:34.124Z,-1.02
2023-01-20T03:26:07.078Z,-1.08
2023-01-20T03:28:36.187Z,-0.95
2023-01-20T03:31:13.135Z,-0.91
2023-01-20T03:33:39.728Z,-0.94
2023-01-20T03:36:06.807Z,-0.85
2023-01-20T03:38:33.443Z,-1.05
2023-01-20T03:41:04.470Z,-0.96
2023-01-20T03:43:42.771Z,-0.93
2023-01-20T03:46:19.880Z,-0.97
2023-01-20T03:48:59.033Z,-1.04
2023-01-20T03:51:34.617Z,-1.01
2023-01-20T03:54:11.143Z,-1.01
2023-01-20T03:56:51.330Z,-0.94
2023-01-20T03:59:22.694Z,-1.00
2023-01-20T04:01:49.893Z,-0.86
2023-01-20T04:04:20.265Z,-0.84
2023-01-20T04:06:49.631Z,-0.79
2023-01-20T04:09:26.352Z,-0.79
2023-01-20T04:11:55.320Z,-0.75
2023-01-20T04:14:24.312Z,-0.89
2023-01-20T04:16:56.916Z,-0.98
2023-01-20T04:19:24.917Z,-0.80
2023-01-20T04:22:05.043Z,-0.86
2023-01-20T04:24:42.307Z,-0.78
2023-01-20T04:27:09.027Z,-0.81
2023-01-20T04:29:35.588Z,-0.75
2023-01-20T04:32:05.008Z,-0.76
2023-01-20T04:34:31.498Z,-0.52
2023-01-20T04:36:58.063Z,-0.72
2023-01-20T04:39:24.616Z,-0.79
2023-01-20T04:41:51.240Z,-0.75
2023-01-20T04:44:17.789Z,-0.84
2023-01-20T04:46:45.412Z,-0.79
2023-01-20T04:49:11.943Z,-0.59
2023-01-20T04:51:38.467Z,-0.59
2023-01-20T04:54:05.266Z,-0.53
2023-01-20T04:56:31.801Z,-0.55
2023-01-20T04:59:01.122Z,-0.54
2023-01-20T05:01:27.698Z,-0.45
2023-01-20T05:03:59.165Z,-0.49
2023-01-20T05:06:25.705Z,-0.51
2023-01-20T05:08:52.243Z,-0.59
2023-01-20T05:11:18.777Z,-0.52
2023-01-20T05:13:45.393Z,-0.48
2023-01-20T05:16:12.607Z,-0.53
2023-01-20T05:18:39.322Z,-0.56
2023-01-20T05:21:08.703Z,-0.43
2023-01-20T05:23:35.583Z,-0.39
2023-01-20T05:26:02.129Z,-0.50
2023-01-20T05:28:28.603Z,-0.52
2023-01-20T05:30:55.191Z,-0.39
2023-01-20T05:33:21.893Z,-0.47
2023-01-20T05:35:48.423Z,-0.45
2023-01-20T05:38:14.948Z,-0.46
2023-01-20T05:40:41.471Z,-0.46
2023-01-20T05:43:07.943Z,-0.38
2023-01-20T05:45:34.435Z,-0.38
2023-01-20T05:48:01.197Z,-0.44
2023-01-20T05:50:30.813Z,-0.41
2023-01-20T05:52:57.324Z,-0.36
2023-01-20T05:55:23.843Z,-0.31
2023-01-20T05:57:50.398Z,-0.29
2023-01-20T06:00:19.472Z,-0.26
2023-01-20T06:02:46.161Z,-0.32
2023-01-20T06:05:13.137Z,-0.42
2023-01-20T06:07:42.150Z,-0.41
2023-01-20T06:10:11.475Z,-0.23
2023-01-20T06:12:38.319Z,-0.29
2023-01-20T06:15:05.376Z,-0.29
2023-01-20T06:17:31.912Z,-0.27
2023-01-20T06:20:00.696Z,-0.28
2023-01-20T06:22:28.098Z,-0.37
2023-01-20T06:24:54.679Z,-0.24
2023-01-20T06:27:21.482Z,-0.31
2023-01-20T06:29:47.939Z,-0.31
2023-01-20T06:32:14.460Z,-0.25
2023-01-20T06:34:43.233Z,-0.31
2023-01-20T06:37:09.738Z,-0.23
2023-01-20T06:39:36.230Z,-0.35
2023-01-20T06:42:02.689Z,-0.29
2023-01-20T06:44:29.359Z,-0.38
2023-01-20T06:46:57.947Z,-0.44
2023-01-20T06:49:24.439Z,-0.34
2023-01-20T06:51:50.989Z,-0.35
2023-01-20T06:54:17.968Z,-0.40
2023-01-20T06:56:44.509Z,-0.38
2023-01-20T06:59:12.095Z,-0.31
2023-01-20T07:01:39.694Z,-0.28
2023-01-20T07:04:12.861Z,-0.26
2023-01-20T07:06:41.472Z,-0.19
2023-01-20T07:09:10.577Z,-0.16
2023-01-20T07:11:39.665Z,-0.23
2023-01-20T07:14:06.877Z,-0.26
2023-01-20T07:16:37.069Z,-0.33
2023-01-20T07:19:04.363Z,-0.23
2023-01-20T07:21:30.886Z,-0.18
2023-01-20T07:24:03.156Z,-0.16
2023-01-20T07:26:32.196Z,-0.15
2023-01-20T07:28:59.523Z,-0.22
2023-01-20T07:31:31.324Z,-0.17
2023-01-20T07:33:58.209Z,-0.26
2023-01-20T07:36:25.026Z,-0.19
2023-01-20T07:38:52.910Z,-0.08
2023-01-20T07:41:20.363Z,-0.11
2023-01-20T07:43:51.777Z,0.03
2023-01-20T07:46:19.145Z,0.12
2023-01-20T07:48:46.051Z,-0.02
2023-01-20T07:51:15.420Z,0.14
2023-01-20T07:53:47.095Z,-0.04
2023-01-20T07:56:25.098Z,-0.09
2023-01-20T07:58:53.670Z,-0.14
2023-01-20T08:01:29.748Z,-0.08
2023-01-20T08:03:57.464Z,0.02
2023-01-20T08:06:28.481Z,-0.07
2023-01-20T08:08:57.807Z,-0.05
2023-01-20T08:11:27.559Z,-0.03
2023-01-20T08:13:54.068Z,0.01
2023-01-20T08:16:20.804Z,0.16
2023-01-20T08:18:47.833Z,0.07
2023-01-20T08:21:20.289Z,0.14
2023-01-20T08:23:46.787Z,0.28
2023-01-20T08:26:13.829Z,0.15
2023-01-20T08:28:40.467Z,0.28
2023-01-20T08:31:09.477Z,0.36
2023-01-20T08:33:36.578Z,0.24
2023-01-20T08:36:32.680Z,0.29
2023-01-20T08:39:02.486Z,0.16
2023-01-20T08:41:35.494Z,0.34
2023-01-20T08:44:04.766Z,0.43
2023-01-20T08:46:32.190Z,0.39
2023-01-20T08:48:58.953Z,0.42
2023-01-20T08:51:28.960Z,0.40
2023-01-20T08:56:40.719Z,0.38
2023-01-20T08:59:07.403Z,0.40
2023-01-20T09:01:38.375Z,0.33
2023-01-20T09:04:07.181Z,0.46
2023-01-20T09:06:42.801Z,0.32
2023-01-20T09:09:12.727Z,0.48
2023-01-20T09:11:40.326Z,0.52
2023-01-20T09:14:06.950Z,0.59
2023-01-20T09:16:33.457Z,0.55
2023-01-20T09:18:59.985Z,0.65
2023-01-20T09:21:26.526Z,0.66
2023-01-20T09:23:53.095Z,0.67
2023-01-20T09:26:34.423Z,0.59
2023-01-20T09:29:09.218Z,0.66
2023-01-20T09:31:44.461Z,0.66
2023-01-20T09:34:19.434Z,0.75
2023-01-20T09:36:49.335Z,0.74
2023-01-20T09:39:35.115Z,0.79
2023-01-20T09:42:34.533Z,0.74
2023-01-20T09:45:25.143Z,0.61
2023-01-20T09:48:01.046Z,0.76
2023-01-20T09:51:08.225Z,1.05
2023-01-20T09:54:00.834Z,0.95
2023-01-20T09:56:29.047Z,0.92
2023-01-20T09:59:08.068Z,1.17
2023-01-20T10:01:48.334Z,1.22
2023-01-20T10:04:29.792Z,1.09
2023-01-20T10:07:07.561Z,1.31
2023-01-20T10:09:38.273Z,1.38
2023-01-20T10:12:18.493Z,1.42
2023-01-20T10:14:49.082Z,1.35
2023-01-20T10:17:26.210Z,1.34
2023-01-20T10:20:07.893Z,1.49
2023-01-20T10:22:45.096Z,1.47
2023-01-20T10:25:58.163Z,1.46
2023-01-20T10:28:29.751Z,1.41
2023-01-20T10:30:58.563Z,1.47
2023-01-20T10:33:33.703Z,1.40
2023-01-20T10:36:00.836Z,1.59
2023-01-20T10:38:52.596Z,1.61
2023-01-20T10:41:26.975Z,1.61
2023-01-20T10:43:53.956Z,1.61
2023-01-20T10:46:29.171Z,1.55
2023-01-20T10:49:33.297Z,1.67
2023-01-20T10:52:02.758Z,1.67
2023-01-20T10:54:45.204Z,1.57
2023-01-20T10:57:14.336Z,1.60
2023-01-20T10:59:52.326Z,1.64
2023-01-20T11:02:27.761Z,1.62
2023-01-20T11:05:29.499Z,1.63
2023-01-20T11:07:58.354Z,1.70
2023-01-20T11:10:27.848Z,1.79
2023-01-20T11:12:59.599Z,1.75
2023-01-20T11:15:44.929Z,1.70
2023-01-20T11:18:14.323Z,1.88
2023-01-20T11:20:56.357Z,1.88
2023-01-20T11:23:39.200Z,1.67
2023-01-20T11:26:20.436Z,1.81
2023-01-20T11:28:54.407Z,1.95
2023-01-20T11:31:32.987Z,2.01
2023-01-20T11:34:02.327Z,2.04
2023-01-20T11:36:29.460Z,2.12
2023-01-20T11:38:57.163Z,2.30
2023-01-20T11:41:25.625Z,2.38
2023-01-20T11:44:00.320Z,2.35
2023-01-20T11:46:36.047Z,2.21
2023-01-20T11:49:13.846Z,2.25
2023-01-20T11:51:50.833Z,2.42
2023-01-20T11:54:26.413Z,2.42
2023-01-20T11:57:17.252Z,2.52
2023-01-20T11:59:49.482Z,2.67
2023-01-20T12:02:24.722Z,2.56
2023-01-20T12:05:17.012Z,2.41
2023-01-20T12:07:48.890Z,2.57
2023-01-20T12:10:32.226Z,2.47
2023-01-20T12:13:18.332Z,2.34
2023-01-20T12:15:53.843Z,2.47
2023-01-20T12:19:01.325Z,2.56
2023-01-20T12:21:37.204Z,2.59
2023-01-20T12:24:20.923Z,2.52
2023-01-20T12:26:48.297Z,2.64
2023-01-20T12:29:27.320Z,2.76
2023-01-20T12:31:54.518Z,2.71
2023-01-20T12:34:27.931Z,2.58
2023-01-20T12:37:23.388Z,2.46
2023-01-20T12:39:52.800Z,2.66
2023-01-20T12:42:41.291Z,2.61
2023-01-20T12:45:38.802Z,2.70
2023-01-20T12:48:31.038Z,2.73
2023-01-20T12:51:35.759Z,2.65
2023-01-20T12:54:21.162Z,2.49
2023-01-20T12:57:12.089Z,2.43
2023-01-20T13:00:14.990Z,2.56
2023-01-20T13:03:18.360Z,2.42
2023-01-20T13:05:44.879Z,2.40
2023-01-20T13:08:43.730Z,2.30
2023-01-20T13:11:28.387Z,2.22
2023-01-20T13:14:21.210Z,2.30
2023-01-20T13:17:07.936Z,2.38
2023-01-20T13:19:39.004Z,2.25
2023-01-20T13:22:31.901Z,2.31
2023-01-20T13:25:04.713Z,2.26
2023-01-20T13:27:37.461Z,2.26
2023-01-20T13:30:06.808Z,2.20
2023-01-20T13:32:36.536Z,2.11
2023-01-20T13:35:18.370Z,2.27
2023-01-20T13:37:54.227Z,2.23
2023-01-20T13:40:33.231Z,2.11
2023-01-20T13:43:00.279Z,1.97
2023-01-20T13:45:27.854Z,2.09
2023-01-20T13:48:05.865Z,1.96
2023-01-20T13:50:32.393Z,2.00
2023-01-20T13:53:15.070Z,1.96
2023-01-20T13:55:41.606Z,2.11
2023-01-20T13:58:15.615Z,2.08
2023-01-20T14:00:42.731Z,1.93
2023-01-20T14:03:30.032Z,1.72
2023-01-20T14:06:21.224Z,1.87
2023-01-20T14:08:49.735Z,1.90
2023-01-20T14:11:24.294Z,1.82
2023-01-20T14:13:55.090Z,1.81
2023-01-20T14:16:26.132Z,1.75
2023-01-20T14:18:58.645Z,1.57
2023-01-20T14:21:30.146Z,1.66
2023-01-20T14:23:57.176Z,1.76
2023-01-20T14:26:26.717Z,1.66
2023-01-20T14:28:55.555Z,1.50
2023-01-20T14:31:45.985Z,1.70
2023-01-20T14:34:30.389Z,1.68
2023-01-20T14:37:03.651Z,1.68
2023-01-20T14:39:30.937Z,1.70
2023-01-20T14:42:01.457Z,1.78
2023-01-20T14:44:30.658Z,1.70
2023-01-20T14:47:02.233Z,1.81
2023-01-20T14:49:33.467Z,1.76
2023-01-20T14:52:00.955Z,1.80
2023-01-20T14:54:34.268Z,1.81
2023-01-20T14:57:17.997Z,1.72
2023-01-20T14:59:44.485Z,1.51
2023-01-20T15:02:28.269Z,1.57
2023-01-20T15:04:55.775Z,1.57
2023-01-20T15:07:24.035Z,1.55
2023-01-20T15:09:58.151Z,1.54
2023-01-20T15:12:42.568Z,1.41
2023-01-20T15:15:12.133Z,1.60
2023-01-20T15:18:04.864Z,1.43
2023-01-20T15:20:33.497Z,1.54
2023-01-20T15:23:00.691Z,1.50
2023-01-20T15:25:28.609Z,1.29
2023-01-20T15:27:57.117Z,1.40
2023-01-20T15:30:27.582Z,1.43
2023-01-20T15:32:55.546Z,1.41
2023-01-20T15:35:26.022Z,1.34
2023-01-20T15:37:53.913Z,1.37
2023-01-20T15:40:24.934Z,1.36
2023-01-20T15:42:53.376Z,1.43
2023-01-20T15:45:22.333Z,1.28
2023-01-20T15:47:51.168Z,1.17
2023-01-20T15:50:22.154Z,1.22
2023-01-20T15:52:49.364Z,1.33
2023-01-20T15:55:17.618Z,1.18
2023-01-20T15:57:47.035Z,1.12
2023-01-20T16:00:22.686Z,1.19
2023-01-20T16:02:51.694Z,1.27
2023-01-20T16:05:18.293Z,1.24
2023-01-20T16:07:47.697Z,1.18
2023-01-20T16:10:19.595Z,1.27
2023-01-20T16:12:47.071Z,1.28
2023-01-20T16:15:19.221Z,1.27
2023-01-20T16:17:45.874Z,1.30
2023-01-20T16:20:19.098Z,1.13
2023-01-20T16:22:45.723Z,1.21
2023-01-20T16:25:12.397Z,1.29
2023-01-20T16:27:38.990Z,1.11
2023-01-20T16:30:06.204Z,1.26
2023-01-20T16:32:32.806Z,1.17
2023-01-20T16:34:59.382Z,1.22
2023-01-20T16:37:25.977Z,1.25
2023-01-20T16:39:52.603Z,1.16
2023-01-20T16:42:19.150Z,1.15
2023-01-20T16:44:45.699Z,1.11
2023-01-20T16:47:12.269Z,1.01
2023-01-20T16:49:38.972Z,1.15
2023-01-20T16:52:05.555Z,1.12
2023-01-20T16:54:32.083Z,1.14
2023-01-20T16:56:58.765Z,1.12
2023-01-20T16:59:26.007Z,1.05
2023-01-20T17:01:52.650Z,0.96
2023-01-20T17:04:19.269Z,1.04
2023-01-20T17:06:45.857Z,1.18
2023-01-20T17:09:12.475Z,1.06
2023-01-20T17:11:40.454Z,1.06
2023-01-20T17:14:09.656Z,0.99
2023-01-20T17:16:37.204Z,1.02
2023-01-20T17:19:05.179Z,1.04
2023-01-20T17:21:34.530Z,0.98
2023-01-20T17:24:04.091Z,0.99
2023-01-20T17:26:33.722Z,0.99
2023-01-20T17:29:02.964Z,0.99
2023-01-20T17:31:31.877Z,1.09
2023-01-20T17:34:00.815Z,1.01
2023-01-20T17:36:29.528Z,1.12
2023-01-20T17:38:57.539Z,1.11
2023-01-20T17:41:24.084Z,1.11
2023-01-20T17:43:51.004Z,1.03
2023-01-20T17:46:28.721Z,1.10
2023-01-20T17:49:02.110Z,1.12
2023-01-20T17:51:31.504Z,1.13
2023-01-20T17:54:00.242Z,1.07
2023-01-20T17:56:31.075Z,1.10
2023-01-20T17:59:00.233Z,1.14
2023-01-20T18:01:29.014Z,1.05
2023-01-20T18:03:58.756Z,1.11
2023-01-20T18:06:26.831Z,1.08
2023-01-20T18:08:58.323Z,1.04
2023-01-20T18:11:29.227Z,1.13
2023-01-20T18:13:57.588Z,1.02
2023-01-20T18:16:28.077Z,1.10
2023-01-20T18:18:58.719Z,1.16
2023-01-20T18:21:28.905Z,1.11
2023-01-20T18:23:55.951Z,1.05
2023-01-20T18:26:25.091Z,1.14
2023-01-20T18:28:56.046Z,1.15
2023-01-20T18:31:24.667Z,1.15
2023-01-20T18:33:54.726Z,1.29
2023-01-20T18:36:27.129Z,1.25
2023-01-20T18:38:56.645Z,1.18
2023-01-20T18:41:24.973Z,1.09
2023-01-20T18:43:51.929Z,1.16
2023-01-20T18:46:18.835Z,1.18
2023-01-20T18:48:47.344Z,1.34
2023-01-20T18:51:16.105Z,1.38
2023-01-20T18:53:44.487Z,1.32
2023-01-20T18:56:13.810Z,1.28
2023-01-20T18:58:45.730Z,1.19
2023-01-20T19:01:14.864Z,1.00
2023-01-20T19:03:41.597Z,1.05
2023-01-20T19:06:13.000Z,1.12
2023-01-20T19:08:41.189Z,1.25
2023-01-20T19:11:15.215Z,1.25
2023-01-20T19:13:43.645Z,1.11
2023-01-20T19:16:12.761Z,1.16
2023-01-20T19:18:44.740Z,1.15
2023-01-20T19:21:14.849Z,1.22
2023-01-20T19:23:42.198Z,1.11
2023-01-20T19:26:11.275Z,1.15
2023-01-20T19:28:38.813Z,1.09
2023-01-20T19:31:11.222Z,1.25
2023-01-20T19:33:40.597Z,1.19
2023-01-20T19:36:11.257Z,1.23
2023-01-20T19:38:38.579Z,1.23
2023-01-20T19:41:10.947Z,1.19
2023-01-20T19:43:38.419Z,1.17
2023-01-20T19:46:16.025Z,1.26
2023-01-20T19:48:43.107Z,1.33
2023-01-20T19:51:15.049Z,1.18
2023-01-20T19:53:43.236Z,1.26
2023-01-20T19:56:16.376Z,1.19
2023-01-20T19:58:43.980Z,1.25
2023-01-20T20:01:13.247Z,1.28
2023-01-20T20:03:40.545Z,1.31
2023-01-20T20:06:21.211Z,1.31
2023-01-20T20:08:47.980Z,1.22
2023-01-20T20:11:15.187Z,1.26
2023-01-20T20:13:42.067Z,1.26
2023-01-20T20:16:09.099Z,1.27
2023-01-20T20:18:36.103Z,1.27
2023-01-20T20:21:05.026Z,1.26
2023-01-20T20:23:31.826Z,1.18
2023-01-20T20:26:00.599Z,1.16
2023-01-20T20:28:28.378Z,1.23
2023-01-20T20:31:05.092Z,1.31
2023-01-20T20:33:32.121Z,1.33
2023-01-20T20:35:58.763Z,1.25
2023-01-20T20:38:25.924Z,1.34
2023-01-20T20:40:58.814Z,1.17
2023-01-20T20:43:26.313Z,1.20
2023-01-20T20:45:53.249Z,1.19
2023-01-20T20:48:20.101Z,1.26
2023-01-20T20:50:46.844Z,1.26
2023-01-20T20:53:13.552Z,1.35
2023-01-20T20:55:41.657Z,1.34
2023-01-20T20:58:09.563Z,1.20
2023-01-20T21:00:37.188Z,1.32
2023-01-20T21:03:11.122Z,1.19
2023-01-20T21:05:37.893Z,1.29
2023-01-20T21:08:06.053Z,1.25
2023-01-20T21:10:34.845Z,1.25
2023-01-20T21:13:01.448Z,1.27
2023-01-20T21:15:30.573Z,1.22
2023-01-20T21:17:58.397Z,1.24
2023-01-20T21:20:25.283Z,1.32
2023-01-20T21:22:52.144Z,1.18
2023-01-20T21:25:18.687Z,1.30
2023-01-20T21:27:47.691Z,1.18
2023-01-20T21:30:14.757Z,1.30
2023-01-20T21:32:41.579Z,1.18
2023-01-20T21:35:10.887Z,1.27
2023-01-20T21:37:39.846Z,1.16
2023-01-20T21:40:07.037Z,1.27
2023-01-20T21:42:33.709Z,1.19
2023-01-20T21:45:00.326Z,1.26
2023-01-20T21:47:26.988Z,1.23
2023-01-20T21:50:14.980Z,1.05
2023-01-20T21:52:41.770Z,1.13
2023-01-20T21:55:16.354Z,1.18
2023-01-20T21:57:43.249Z,1.15
2023-01-20T22:00:11.060Z,1.10
2023-01-20T22:02:37.759Z,1.08
2023-01-20T22:05:04.639Z,1.13
2023-01-20T22:07:31.241Z,1.10
2023-01-20T22:09:58.369Z,1.11
2023-01-20T22:12:25.159Z,1.11
2023-01-20T22:14:51.792Z,1.11
2023-01-20T22:17:18.370Z,1.22
2023-01-20T22:19:45.597Z,1.17
2023-01-20T22:22:19.788Z,1.28
2023-01-20T22:24:48.531Z,1.33
2023-01-20T22:27:15.135Z,1.23
2023-01-20T22:29:41.755Z,1.14
2023-01-20T22:32:08.336Z,1.33
2023-01-20T22:34:35.180Z,1.24
2023-01-20T22:37:02.310Z,1.19
2023-01-20T22:39:28.952Z,1.21
2023-01-20T22:41:57.991Z,1.20
2023-01-20T22:44:24.666Z,1.32
2023-01-20T22:46:51.273Z,1.36
2023-01-20T22:49:18.395Z,1.23
2023-01-20T22:51:45.074Z,1.27
2023-01-20T22:54:11.845Z,1.21
2023-01-20T22:56:40.902Z,1.27
2023-01-20T22:59:07.719Z,1.22
2023-01-20T23:01:35.416Z,1.32
2023-01-20T23:04:04.829Z,1.18
2023-01-20T23:06:34.084Z,1.22
2023-01-20T23:09:02.558Z,1.32
2023-01-20T23:11:32.516Z,1.21
2023-01-20T23:14:00.407Z,1.25
2023-01-20T23:16:27.206Z,1.17
2023-01-20T23:18:53.928Z,1.22
2023-01-20T23:21:21.452Z,1.23
2023-01-20T23:23:54.408Z,1.16
2023-01-20T23:26:26.655Z,1.22
2023-01-20T23:28:55.204Z,1.21
2023-01-20T23:31:25.428Z,1.16
2023-01-20T23:33:54.346Z,1.29
2023-01-20T23:36:28.324Z,1.32
2023-01-20T23:38:55.984Z,1.28
2023-01-20T23:41:27.610Z,1.28
2023-01-20T23:43:54.313Z,1.17
2023-01-20T23:46:20.920Z,1.20
2023-01-20T23:48:47.835Z,1.18
2023-01-20T23:51:14.867Z,1.19
2023-01-20T23:53:41.793Z,1.18
2023-01-20T23:56:20.753Z,1.17
2023-01-20T23:58:47.842Z,1.12
